createdAt,value
2023-04-13T00:00:36.596Z,4.10
2023-04-13T00:01:35.945Z,4.10
2023-04-13T00:02:36.073Z,4.19
2023-04-13T00:03:36.170Z,4.23
2023-04-13T00:04:35.914Z,4.17
2023-04-13T00:05:35.924Z,4.19
2023-04-13T00:06:35.899Z,4.24
2023-04-13T00:07:35.879Z,4.20
2023-04-13T00:08:35.888Z,4.20
2023-04-13T00:09:35.849Z,4.17
2023-04-13T00:10:36.603Z,4.28
2023-04-13T00:11:35.839Z,4.37
2023-04-13T00:12:35.846Z,4.22
2023-04-13T00:13:35.811Z,4.19
2023-04-13T00:14:35.837Z,4.19
2023-04-13T00:15:35.813Z,4.20
2023-04-13T00:16:35.837Z,4.28
2023-04-13T00:17:35.818Z,4.24
2023-04-13T00:18:35.791Z,4.14
2023-04-13T00:19:35.806Z,4.26
2023-04-13T00:20:35.810Z,4.26
2023-04-13T00:21:35.772Z,4.30
2023-04-13T00:22:35.758Z,4.19
2023-04-13T00:23:35.775Z,4.22
2023-04-13T00:24:35.774Z,4.32
2023-04-13T00:25:35.757Z,4.22
2023-04-13T00:26:35.700Z,4.22
2023-04-13T00:27:36.721Z,4.17
2023-04-13T00:28:35.777Z,4.24
2023-04-13T00:29:35.709Z,4.22
2023-04-13T00:30:35.733Z,4.22
2023-04-13T00:31:35.675Z,4.20
2023-04-13T00:32:35.708Z,4.12
2023-04-13T00:33:35.681Z,4.20
2023-04-13T00:34:35.662Z,4.14
2023-04-13T00:35:35.709Z,4.10
2023-04-13T00:36:35.666Z,4.16
2023-04-13T00:37:35.643Z,4.06
2023-04-13T00:38:35.629Z,4.14
2023-04-13T00:39:35.634Z,3.98
2023-04-13T00:40:35.636Z,4.04
2023-04-13T00:41:35.626Z,4.08
2023-04-13T00:42:35.605Z,4.01
2023-04-13T00:43:35.628Z,3.98
2023-04-13T00:44:35.609Z,3.96
2023-04-13T00:45:35.563Z,4.01
2023-04-13T00:46:35.633Z,3.87
2023-04-13T00:47:35.660Z,3.95
2023-04-13T00:48:35.565Z,3.91
2023-04-13T00:49:35.597Z,3.87
2023-04-13T00:50:35.551Z,3.80
2023-04-13T00:51:36.056Z,3.86
2023-04-13T00:52:35.522Z,3.86
2023-04-13T00:53:35.539Z,3.84
2023-04-13T00:54:35.520Z,3.78
2023-04-13T00:55:35.505Z,3.70
2023-04-13T00:56:35.484Z,3.78
2023-04-13T00:57:35.529Z,3.74
2023-04-13T00:58:35.473Z,3.86
2023-04-13T00:59:35.496Z,3.83
2023-04-13T01:00:35.522Z,3.78
2023-04-13T01:01:35.468Z,3.81
2023-04-13T01:02:35.531Z,3.76
2023-04-13T01:03:35.511Z,3.88
2023-04-13T01:04:35.479Z,3.83
2023-04-13T01:05:35.462Z,3.83
2023-04-13T01:06:35.443Z,3.78
2023-04-13T01:07:35.446Z,3.81
2023-04-13T01:08:35.390Z,3.91
2023-04-13T01:09:35.414Z,3.81
2023-04-13T01:10:35.380Z,3.83
2023-04-13T01:11:35.402Z,3.76
2023-04-13T01:12:35.364Z,3.80
2023-04-13T01:13:35.356Z,3.78
2023-04-13T01:14:35.352Z,3.83
2023-04-13T01:15:35.386Z,3.87
2023-04-13T01:16:35.356Z,3.94
2023-04-13T01:17:35.359Z,3.87
2023-04-13T01:18:35.317Z,3.87
2023-04-13T01:19:35.311Z,3.86
2023-04-13T01:20:36.121Z,3.77
2023-04-13T01:21:35.320Z,3.83
2023-04-13T01:22:35.315Z,3.74
2023-04-13T01:23:35.289Z,3.68
2023-04-13T01:24:35.273Z,3.76
2023-04-13T01:25:35.268Z,3.66
2023-04-13T01:26:35.336Z,3.63
2023-04-13T01:27:35.251Z,3.62
2023-04-13T01:28:35.241Z,3.66
2023-04-13T01:29:35.259Z,3.53
2023-04-13T01:30:35.275Z,3.70
2023-04-13T01:31:35.392Z,3.51
2023-04-13T01:32:35.252Z,3.59
2023-04-13T01:33:35.234Z,3.62
2023-04-13T01:34:35.191Z,3.48
2023-04-13T01:35:35.980Z,3.59
2023-04-13T01:36:36.097Z,3.50
2023-04-13T01:37:35.200Z,3.42
2023-04-13T01:38:35.165Z,3.31
2023-04-13T01:39:35.175Z,3.31
2023-04-13T01:40:35.229Z,3.23
2023-04-13T01:41:35.171Z,3.16
2023-04-13T01:42:36.175Z,3.11
2023-04-13T01:43:35.130Z,3.04
2023-04-13T01:44:35.120Z,3.11
2023-04-13T01:45:35.113Z,3.07
2023-04-13T01:46:35.121Z,3.07
2023-04-13T01:47:35.149Z,3.08
2023-04-13T01:48:35.091Z,3.00
2023-04-13T01:49:35.085Z,3.08
2023-04-13T01:50:35.072Z,3.04
2023-04-13T01:51:35.068Z,3.07
2023-04-13T01:52:35.093Z,3.13
2023-04-13T01:53:35.044Z,3.22
2023-04-13T01:54:35.044Z,3.14
2023-04-13T01:55:35.047Z,3.18
2023-04-13T01:56:35.036Z,3.22
2023-04-13T01:57:35.054Z,3.21
2023-04-13T01:58:35.042Z,3.32
2023-04-13T01:59:35.032Z,3.34
2023-04-13T02:00:35.060Z,3.26
2023-04-13T02:01:35.065Z,3.28
2023-04-13T02:02:35.150Z,3.29
2023-04-13T02:03:35.051Z,3.42
2023-04-13T02:04:34.974Z,3.42
2023-04-13T02:05:34.955Z,3.45
2023-04-13T02:06:34.998Z,3.62
2023-04-13T02:07:34.946Z,3.73
2023-04-13T02:08:34.934Z,3.63
2023-04-13T02:09:34.941Z,3.69
2023-04-13T02:10:34.962Z,3.53
2023-04-13T02:11:34.930Z,3.62
2023-04-13T02:12:34.917Z,3.53
2023-04-13T02:13:34.899Z,3.47
2023-04-13T02:14:34.932Z,3.53
2023-04-13T02:15:34.906Z,3.31
2023-04-13T02:16:34.916Z,3.32
2023-04-13T02:17:34.897Z,3.28
2023-04-13T02:18:34.878Z,3.19
2023-04-13T02:19:34.917Z,3.03
2023-04-13T02:20:34.855Z,3.19
2023-04-13T02:21:34.825Z,3.00
2023-04-13T02:22:34.833Z,3.10
2023-04-13T02:23:34.828Z,3.01
2023-04-13T02:24:34.830Z,3.03
2023-04-13T02:25:34.824Z,3.00
2023-04-13T02:26:34.797Z,3.04
2023-04-13T02:27:34.807Z,3.03
2023-04-13T02:28:34.784Z,3.01
2023-04-13T02:29:34.797Z,3.04
2023-04-13T02:30:35.150Z,3.04
2023-04-13T02:31:34.838Z,3.08
2023-04-13T02:32:34.800Z,3.00
2023-04-13T02:33:34.734Z,3.16
2023-04-13T02:34:35.738Z,3.14
2023-04-13T02:35:35.678Z,3.13
2023-04-13T02:36:36.581Z,3.08
2023-04-13T02:37:34.735Z,3.18
2023-04-13T02:38:34.811Z,3.19
2023-04-13T02:39:34.724Z,3.26
2023-04-13T02:40:34.733Z,3.25
2023-04-13T02:41:34.712Z,3.23
2023-04-13T02:42:34.693Z,3.29
2023-04-13T02:43:34.724Z,3.22
2023-04-13T02:44:34.670Z,3.34
2023-04-13T02:45:34.680Z,3.23
2023-04-13T02:46:34.671Z,3.32
2023-04-13T02:47:34.688Z,3.28
2023-04-13T02:48:34.679Z,3.25
2023-04-13T02:49:34.628Z,3.28
2023-04-13T02:50:34.607Z,3.31
2023-04-13T02:51:34.656Z,3.28
2023-04-13T02:52:34.573Z,3.25
2023-04-13T02:53:34.625Z,3.31
2023-04-13T02:54:34.561Z,3.28
2023-04-13T02:55:34.567Z,3.41
2023-04-13T02:56:34.743Z,3.53
2023-04-13T02:57:34.591Z,3.41
2023-04-13T02:58:34.611Z,3.36
2023-04-13T02:59:34.577Z,3.25
2023-04-13T03:00:34.568Z,3.42
2023-04-13T03:01:34.590Z,3.50
2023-04-13T03:02:34.697Z,3.47
2023-04-13T03:03:34.577Z,3.42
2023-04-13T03:04:34.560Z,3.41
2023-04-13T03:05:35.069Z,3.29
2023-04-13T03:06:34.486Z,3.29
2023-04-13T03:07:34.511Z,3.18
2023-04-13T03:08:34.481Z,3.14
2023-04-13T03:09:34.522Z,3.25
2023-04-13T03:10:34.458Z,3.19
2023-04-13T03:11:34.519Z,3.23
2023-04-13T03:12:34.443Z,3.19
2023-04-13T03:13:34.448Z,3.19
2023-04-13T03:14:34.415Z,3.22
2023-04-13T03:15:34.456Z,3.23
2023-04-13T03:16:35.466Z,3.16
2023-04-13T03:17:34.419Z,3.25
2023-04-13T03:18:34.440Z,3.31
2023-04-13T03:19:34.428Z,3.25
2023-04-13T03:20:34.400Z,3.32
2023-04-13T03:21:34.393Z,3.36
2023-04-13T03:22:34.363Z,3.41
2023-04-13T03:23:35.376Z,3.23
2023-04-13T03:24:34.360Z,3.23
2023-04-13T03:25:34.395Z,3.34
2023-04-13T03:26:34.351Z,3.31
2023-04-13T03:27:34.356Z,3.34
2023-04-13T03:28:34.370Z,3.26
2023-04-13T03:29:34.306Z,3.28
2023-04-13T03:30:34.332Z,3.32
2023-04-13T03:31:34.364Z,3.45
2023-04-13T03:32:35.026Z,3.58
2023-04-13T03:33:34.315Z,3.62
2023-04-13T03:34:34.285Z,3.62
2023-04-13T03:35:34.265Z,3.68
2023-04-13T03:36:34.272Z,3.76
2023-04-13T03:37:34.299Z,3.73
2023-04-13T03:38:34.247Z,3.80
2023-04-13T03:39:34.228Z,3.81
2023-04-13T03:40:35.117Z,3.80
2023-04-13T03:41:34.279Z,3.87
2023-04-13T03:42:34.238Z,3.96
2023-04-13T03:43:34.195Z,3.91
2023-04-13T03:44:35.266Z,3.92
2023-04-13T03:45:34.201Z,3.83
2023-04-13T03:46:34.230Z,3.81
2023-04-13T04:02:50.130Z,4.04
2023-04-13T04:03:49.918Z,4.17
2023-04-13T04:04:49.882Z,4.16
2023-04-13T04:05:49.811Z,4.20
2023-04-13T04:06:49.841Z,4.19
2023-04-13T04:07:49.803Z,4.17
2023-04-13T04:08:49.888Z,4.24
2023-04-13T04:09:50.921Z,4.40
2023-04-13T04:10:50.907Z,4.31
2023-04-13T04:11:50.970Z,4.40
2023-04-13T04:12:50.896Z,4.45
2023-04-13T04:13:50.951Z,4.53
2023-04-13T04:14:50.932Z,4.40
2023-04-13T04:15:50.932Z,4.50
2023-04-13T04:16:50.931Z,4.48
2023-04-13T04:17:50.929Z,4.50
2023-04-13T04:18:50.895Z,4.50
2023-04-13T04:19:50.864Z,4.52
2023-04-13T04:20:50.838Z,4.53
2023-04-13T04:21:50.817Z,4.53
2023-04-13T04:22:51.517Z,4.56
2023-04-13T04:23:50.843Z,4.63
2023-04-13T04:24:50.823Z,4.60
2023-04-13T04:25:50.856Z,4.66
2023-04-13T04:26:50.856Z,4.62
2023-04-13T04:27:50.785Z,4.70
2023-04-13T04:28:50.822Z,4.71
2023-04-13T04:29:50.805Z,4.73
2023-04-13T04:30:50.746Z,4.68
2023-04-13T04:31:50.834Z,4.75
2023-04-13T04:32:50.785Z,4.75
2023-04-13T04:33:50.725Z,4.68
2023-04-13T04:34:50.727Z,4.74
2023-04-13T04:35:50.726Z,4.78
2023-04-13T04:36:50.715Z,4.78
2023-04-13T04:37:50.712Z,4.87
2023-04-13T04:38:50.707Z,4.82
2023-04-13T04:39:50.685Z,4.82
2023-04-13T04:40:50.727Z,4.96
2023-04-13T04:41:50.665Z,4.92
2023-04-13T04:42:50.674Z,4.92
2023-04-13T04:43:51.551Z,5.04
2023-04-13T04:44:51.663Z,5.07
2023-04-13T04:45:50.703Z,5.05
2023-04-13T04:46:50.635Z,5.10
2023-04-13T04:47:50.736Z,5.14
2023-04-13T04:48:50.647Z,5.11
2023-04-13T04:49:50.617Z,5.12
2023-04-13T04:50:50.589Z,5.17
2023-04-13T04:51:50.625Z,5.20
2023-04-13T04:52:50.589Z,5.29
2023-04-13T04:53:50.581Z,5.26
2023-04-13T04:54:50.616Z,5.29
2023-04-13T04:55:50.583Z,5.28
2023-04-13T04:56:50.582Z,5.38
2023-04-13T04:57:50.579Z,5.44
2023-04-13T04:58:50.558Z,5.43
2023-04-13T04:59:50.546Z,5.35
2023-04-13T05:00:50.571Z,5.41
2023-04-13T05:01:50.595Z,5.43
2023-04-13T05:02:50.629Z,5.48
2023-04-13T05:03:50.508Z,5.46
2023-04-13T05:04:50.519Z,5.44
2023-04-13T05:05:50.488Z,5.48
2023-04-13T05:07:22.487Z,5.50
2023-04-13T05:07:50.494Z,5.46
2023-04-13T05:08:50.458Z,5.53
2023-04-13T05:09:51.057Z,5.48
2023-04-13T05:10:50.519Z,5.54
2023-04-13T05:11:50.444Z,5.57
2023-04-13T05:12:50.462Z,5.62
2023-04-13T05:13:50.452Z,5.51
2023-04-13T05:14:50.429Z,5.66
2023-04-13T05:15:50.451Z,5.65
2023-04-13T05:16:50.403Z,5.66
2023-04-13T05:17:51.417Z,5.73
2023-04-13T05:18:50.380Z,5.72
2023-04-13T05:19:50.399Z,5.66
2023-04-13T05:20:50.389Z,5.80
2023-04-13T05:21:50.371Z,5.83
2023-04-13T05:22:50.350Z,5.82
2023-04-13T05:23:50.388Z,5.80
2023-04-13T05:24:50.357Z,5.91
2023-04-13T05:25:50.348Z,5.94
2023-04-13T05:26:50.361Z,5.97
2023-04-13T05:27:50.334Z,5.97
2023-04-13T05:28:50.350Z,5.91
2023-04-13T05:29:50.301Z,6.02
2023-04-13T05:30:50.362Z,6.08
2023-04-13T05:31:50.318Z,6.07
2023-04-13T05:32:50.320Z,6.14
2023-04-13T05:33:50.274Z,6.26
2023-04-13T05:34:50.284Z,6.36
2023-04-13T05:35:50.268Z,6.33
2023-04-13T05:36:50.303Z,6.35
2023-04-13T05:37:50.233Z,6.35
2023-04-13T05:38:50.241Z,6.49
2023-04-13T05:39:50.247Z,6.52
2023-04-13T05:40:50.268Z,6.54
2023-04-13T05:41:50.227Z,6.51
2023-04-13T05:42:50.263Z,6.57
2023-04-13T05:43:50.212Z,6.54
2023-04-13T05:44:50.290Z,6.60
2023-04-13T05:45:50.229Z,6.60
2023-04-13T05:46:50.224Z,6.59
2023-04-13T05:47:50.233Z,6.78
2023-04-13T05:48:50.171Z,6.72
2023-04-13T05:49:50.178Z,6.77
2023-04-13T05:50:50.178Z,6.75
2023-04-13T05:51:50.136Z,6.74
2023-04-13T05:52:50.198Z,6.79
2023-04-13T05:53:50.151Z,6.69
2023-04-13T05:54:50.157Z,6.81
2023-04-13T05:55:50.117Z,6.75
2023-04-13T05:56:50.116Z,6.78
2023-04-13T05:57:50.084Z,6.84
2023-04-13T05:58:50.135Z,6.77
2023-04-13T05:59:50.071Z,6.85
2023-04-13T06:00:50.054Z,6.87
2023-04-13T06:01:52.139Z,6.84
2023-04-13T06:02:51.150Z,6.88
2023-04-13T06:03:50.238Z,6.89
2023-04-13T06:04:50.162Z,6.84
2023-04-13T06:05:50.069Z,7.05
2023-04-13T06:06:50.049Z,7.00
2023-04-13T06:07:50.018Z,7.00
2023-04-13T06:08:50.002Z,6.99
2023-04-13T06:09:49.978Z,6.96
2023-04-13T06:10:50.999Z,6.96
2023-04-13T06:11:49.972Z,6.95
2023-04-13T06:13:21.913Z,6.93
2023-04-13T06:13:50.033Z,7.03
2023-04-13T06:14:50.960Z,7.00
2023-04-13T06:15:49.954Z,7.00
2023-04-13T06:16:50.023Z,7.02
2023-04-13T06:17:50.273Z,7.20
2023-04-13T06:18:49.921Z,7.17
2023-04-13T06:19:49.902Z,7.07
2023-04-13T06:20:49.903Z,7.13
2023-04-13T06:21:49.887Z,7.23
2023-04-13T06:22:49.937Z,7.14
2023-04-13T06:23:49.908Z,7.20
2023-04-13T06:24:49.889Z,7.10
2023-04-13T06:25:49.880Z,7.11
2023-04-13T06:26:49.883Z,7.07
2023-04-13T06:27:50.086Z,7.05
2023-04-13T06:28:49.911Z,7.15
2023-04-13T06:29:49.870Z,7.13
2023-04-13T06:30:49.847Z,7.06
2023-04-13T06:31:49.878Z,7.07
2023-04-13T06:32:49.823Z,7.06
2023-04-13T06:33:49.842Z,7.13
2023-04-13T06:34:49.813Z,7.13
2023-04-13T06:35:49.777Z,7.14
2023-04-13T06:36:49.850Z,7.11
2023-04-13T06:37:49.798Z,7.20
2023-04-13T06:38:49.801Z,7.11
2023-04-13T06:39:49.805Z,7.20
2023-04-13T06:40:49.752Z,7.20
2023-04-13T06:41:49.750Z,7.18
2023-04-13T06:42:49.723Z,7.20
2023-04-13T06:43:49.706Z,7.25
2023-04-13T06:44:49.742Z,7.24
2023-04-13T06:45:49.738Z,7.20
2023-04-13T06:46:49.792Z,7.23
2023-04-13T06:47:49.754Z,7.28
2023-04-13T06:48:49.775Z,7.33
2023-04-13T06:49:49.670Z,7.32
2023-04-13T06:50:49.697Z,7.36
2023-04-13T06:51:49.659Z,7.23
2023-04-13T06:52:49.662Z,7.31
2023-04-13T06:53:49.642Z,7.40
2023-04-13T06:54:49.699Z,7.35
2023-04-13T06:55:49.634Z,7.33
2023-04-13T06:56:49.671Z,7.38
2023-04-13T06:57:49.598Z,7.35
2023-04-13T06:58:49.620Z,7.38
2023-04-13T06:59:49.615Z,7.43
2023-04-13T07:00:49.633Z,7.42
2023-04-13T07:01:49.672Z,7.39
2023-04-13T07:02:49.672Z,7.39
2023-04-13T07:03:49.654Z,7.45
2023-04-13T07:04:49.638Z,7.42
2023-04-13T07:05:49.551Z,7.51
2023-04-13T07:06:49.591Z,7.48
2023-04-13T07:07:49.555Z,7.56
2023-04-13T07:08:49.531Z,7.54
2023-04-13T07:09:49.595Z,7.45
2023-04-13T07:10:49.552Z,7.36
2023-04-13T07:11:50.091Z,7.47
2023-04-13T07:12:49.542Z,7.48
2023-04-13T07:13:49.505Z,7.54
2023-04-13T07:14:49.564Z,7.50
2023-04-13T07:15:49.507Z,7.53
2023-04-13T07:16:49.497Z,7.47
2023-04-13T07:17:49.527Z,7.50
2023-04-13T07:18:50.118Z,7.57
2023-04-13T07:19:49.451Z,7.60
2023-04-13T07:20:49.458Z,7.66
2023-04-13T07:21:49.463Z,7.72
2023-04-13T07:22:49.419Z,7.66
2023-04-13T07:23:49.426Z,7.69
2023-04-13T07:24:49.414Z,7.72
2023-04-13T07:25:49.417Z,7.73
2023-04-13T07:26:49.411Z,7.77
2023-04-13T07:27:49.403Z,7.79
2023-04-13T07:28:49.465Z,7.80
2023-04-13T07:29:49.371Z,7.87
2023-04-13T07:30:49.400Z,7.90
2023-04-13T07:31:49.427Z,8.03
2023-04-13T07:32:49.419Z,7.98
2023-04-13T07:33:49.347Z,8.24
2023-04-13T07:34:49.348Z,8.18
2023-04-13T07:35:49.366Z,8.31
2023-04-13T07:36:49.326Z,8.31
2023-04-13T07:37:50.628Z,8.36
2023-04-13T07:38:49.302Z,8.30
2023-04-13T07:39:49.372Z,8.31
2023-04-13T07:40:49.316Z,8.23
2023-04-13T07:41:49.286Z,8.24
2023-04-13T07:42:49.278Z,8.23
2023-04-13T07:43:49.298Z,8.23
2023-04-13T07:44:49.347Z,8.27
2023-04-13T07:45:49.283Z,8.27
2023-04-13T07:46:49.306Z,8.30
2023-04-13T07:47:49.295Z,8.24
2023-04-13T07:48:49.270Z,8.36
2023-04-13T07:49:49.221Z,8.42
2023-04-13T07:50:49.222Z,8.36
2023-04-13T07:51:49.199Z,8.36
2023-04-13T07:52:49.222Z,8.41
2023-04-13T07:53:49.204Z,8.66
2023-04-13T07:54:49.189Z,8.61
2023-04-13T07:55:49.194Z,8.58
2023-04-13T07:56:49.275Z,8.61
2023-04-13T07:57:49.162Z,8.69
2023-04-13T07:58:49.145Z,8.84
2023-04-13T07:59:49.165Z,8.97
2023-04-13T08:00:49.109Z,9.06
2023-04-13T08:01:49.177Z,9.08
2023-04-13T08:02:49.349Z,9.14
2023-04-13T08:03:49.202Z,9.26
2023-04-13T08:04:49.275Z,9.14
2023-04-13T08:05:49.085Z,9.11
2023-04-13T08:06:49.104Z,9.21
2023-04-13T08:07:49.067Z,9.13
2023-04-13T08:08:49.078Z,9.23
2023-04-13T08:09:49.069Z,9.26
2023-04-13T08:10:49.047Z,9.08
2023-04-13T08:11:49.058Z,9.11
2023-04-13T08:12:49.076Z,9.19
2023-04-13T08:13:49.041Z,9.21
2023-04-13T08:14:49.057Z,9.19
2023-04-13T08:15:50.034Z,9.08
2023-04-13T08:16:49.064Z,9.10
2023-04-13T08:17:49.109Z,9.21
2023-04-13T08:18:49.042Z,9.46
2023-04-13T08:19:48.980Z,9.80
2023-04-13T08:20:48.971Z,9.91
2023-04-13T08:21:48.993Z,9.86
2023-04-13T08:22:48.981Z,9.86
2023-04-13T08:23:48.951Z,9.87
2023-04-13T08:24:48.935Z,9.94
2023-04-13T08:25:48.950Z,10.26
2023-04-13T08:26:48.924Z,10.57
2023-04-13T08:27:48.971Z,10.44
2023-04-13T08:28:49.076Z,10.38
2023-04-13T08:29:49.176Z,10.33
2023-04-13T08:30:48.883Z,10.26
2023-04-13T08:31:48.943Z,10.09
2023-04-13T08:32:48.958Z,9.98
2023-04-13T08:33:48.964Z,10.28
2023-04-13T08:34:48.962Z,10.15
2023-04-13T08:35:48.889Z,10.17
2023-04-13T08:36:48.858Z,10.17
2023-04-13T08:37:48.868Z,10.17
2023-04-13T08:38:49.854Z,10.31
2023-04-13T08:39:48.852Z,10.19
2023-04-13T08:40:50.096Z,9.83
2023-04-13T08:41:49.842Z,9.77
2023-04-13T08:42:48.815Z,9.68
2023-04-13T08:43:48.837Z,9.84
2023-04-13T08:44:48.855Z,9.72
2023-04-13T08:45:48.806Z,9.62
2023-04-13T08:46:51.343Z,9.68
2023-04-13T08:47:48.789Z,9.65
2023-04-13T08:48:53.893Z,9.76
2023-04-13T08:49:50.755Z,9.55
2023-04-13T08:50:48.710Z,9.50
2023-04-13T08:51:48.715Z,9.47
2023-04-13T08:52:48.718Z,9.66
2023-04-13T08:53:48.743Z,9.68
2023-04-13T08:54:48.698Z,9.76
2023-04-13T08:55:48.695Z,9.89
2023-04-13T08:56:48.674Z,9.99
2023-04-13T08:57:51.082Z,10.09
2023-04-13T08:58:48.692Z,10.05
2023-04-13T08:59:48.679Z,10.22
2023-04-13T09:00:48.658Z,10.37
2023-04-13T09:01:48.805Z,10.42
2023-04-13T09:03:00.376Z,10.35
2023-04-13T09:03:50.877Z,10.07
2023-04-13T09:04:48.820Z,9.98
2023-04-13T09:05:48.716Z,9.89
2023-04-13T09:06:48.680Z,10.02
2023-04-13T09:07:48.646Z,10.25
2023-04-13T09:08:48.585Z,10.20
2023-04-13T09:09:48.612Z,10.15
2023-04-13T09:10:48.572Z,10.28
2023-04-13T09:11:50.837Z,10.13
2023-04-13T09:12:49.550Z,10.28
2023-04-13T09:13:48.556Z,10.30
2023-04-13T09:14:48.542Z,10.34
2023-04-13T09:15:48.525Z,10.34
2023-04-13T09:16:48.581Z,10.37
2023-04-13T09:17:48.573Z,10.13
2023-04-13T09:18:48.552Z,10.20
2023-04-13T09:19:48.531Z,10.19
2023-04-13T09:20:49.196Z,10.30
2023-04-13T09:21:48.543Z,10.37
2023-04-13T09:22:48.502Z,10.64
2023-04-13T09:23:48.517Z,10.68
2023-04-13T09:24:48.498Z,10.75
2023-04-13T09:25:48.512Z,10.67
2023-04-13T09:26:48.520Z,10.59
2023-04-13T09:27:48.501Z,10.79
2023-04-13T09:28:48.628Z,10.89
2023-04-13T09:29:48.495Z,10.72
2023-04-13T09:30:48.470Z,10.61
2023-04-13T09:31:48.432Z,10.48
2023-04-13T09:32:48.472Z,10.48
2023-04-13T09:33:48.427Z,10.40
2023-04-13T09:34:48.404Z,10.31
2023-04-13T09:35:48.416Z,10.16
2023-04-13T09:36:55.011Z,10.20
2023-04-13T09:37:51.179Z,10.37
2023-04-13T09:38:48.407Z,10.22
2023-04-13T09:39:48.359Z,10.31
2023-04-13T09:40:48.366Z,10.19
2023-04-13T09:41:48.368Z,10.20
2023-04-13T09:42:49.166Z,10.35
2023-04-13T09:43:48.336Z,10.41
2023-04-13T09:44:48.387Z,10.37
2023-04-13T09:45:48.396Z,10.34
2023-04-13T09:46:48.397Z,10.31
2023-04-13T09:47:49.047Z,10.44
2023-04-13T09:48:48.294Z,10.31
2023-04-13T09:49:48.298Z,10.33
2023-04-13T09:50:48.253Z,10.33
2023-04-13T09:51:48.274Z,10.37
2023-04-13T09:52:48.269Z,10.30
2023-04-13T09:53:48.297Z,10.31
2023-04-13T09:54:48.818Z,10.26
2023-04-13T09:55:49.244Z,10.26
2023-04-13T09:56:48.281Z,10.16
2023-04-13T09:57:48.294Z,10.04
2023-04-13T09:58:48.217Z,10.17
2023-04-13T09:59:48.194Z,10.13
2023-04-13T10:00:48.196Z,10.22
2023-04-13T10:01:48.238Z,10.16
2023-04-13T10:02:48.326Z,10.22
2023-04-13T10:03:48.294Z,10.19
2023-04-13T10:04:48.240Z,10.10
2023-04-13T10:05:58.900Z,10.15
2023-04-13T10:06:50.143Z,10.22
2023-04-13T10:07:48.168Z,10.28
2023-04-13T10:08:48.169Z,10.37
2023-04-13T10:09:48.176Z,10.42
2023-04-13T10:10:48.722Z,10.48
2023-04-13T10:11:48.100Z,10.56
2023-04-13T10:12:48.105Z,10.53
2023-04-13T10:13:48.086Z,10.41
2023-04-13T10:14:48.102Z,10.64
2023-04-13T10:15:48.268Z,10.71
2023-04-13T10:16:48.122Z,10.81
2023-04-13T10:17:48.183Z,10.89
2023-04-13T10:18:48.098Z,10.82
2023-04-13T10:19:48.096Z,10.76
2023-04-13T10:20:48.071Z,10.72
2023-04-13T10:21:48.045Z,10.90
2023-04-13T10:22:48.007Z,10.87
2023-04-13T10:23:49.166Z,10.90
2023-04-13T10:24:48.004Z,10.78
2023-04-13T10:25:48.029Z,10.71
2023-04-13T10:26:48.020Z,10.67
2023-04-13T10:27:48.006Z,10.67
2023-04-13T10:28:47.982Z,10.79
2023-04-13T10:29:47.978Z,10.89
2023-04-13T10:30:47.957Z,10.94
2023-04-13T10:31:47.986Z,11.08
2023-04-13T10:32:48.033Z,11.08
2023-04-13T10:33:47.973Z,11.30
2023-04-13T10:34:47.976Z,11.48
2023-04-13T10:35:47.933Z,11.40
2023-04-13T10:36:47.899Z,11.27
2023-04-13T10:37:47.935Z,11.26
2023-04-13T10:38:47.899Z,11.36
2023-04-13T10:39:47.878Z,11.18
2023-04-13T10:40:47.857Z,11.43
2023-04-13T10:41:47.862Z,11.08
2023-04-13T10:42:51.795Z,10.94
2023-04-13T10:43:48.867Z,10.94
2023-04-13T10:44:47.824Z,10.90
2023-04-13T10:45:47.835Z,10.89
2023-04-13T10:46:47.862Z,10.87
2023-04-13T10:47:47.885Z,10.86
2023-04-13T10:48:47.820Z,11.11
2023-04-13T10:49:47.815Z,11.10
2023-04-13T10:50:47.789Z,11.10
2023-04-13T10:51:47.814Z,11.10
2023-04-13T10:52:47.800Z,10.99
2023-04-13T10:53:47.847Z,11.17
2023-04-13T10:54:47.753Z,11.59
2023-04-13T10:55:47.750Z,12.18
2023-04-13T10:56:47.757Z,12.60
2023-04-13T10:57:47.754Z,12.68
2023-04-13T10:58:47.767Z,12.72
2023-04-13T11:00:48.773Z,13.18
2023-04-13T11:01:47.814Z,13.41
2023-04-13T11:02:47.898Z,13.41
2023-04-13T11:04:03.201Z,13.39
2023-04-13T11:04:49.715Z,13.22
2023-04-13T11:05:47.764Z,13.05
2023-04-13T11:06:47.697Z,13.37
2023-04-13T11:07:47.679Z,13.37
2023-04-13T11:08:48.517Z,13.31
2023-04-13T11:09:48.733Z,13.19
2023-04-13T11:10:47.640Z,12.78
2023-04-13T11:11:47.659Z,12.47
2023-04-13T11:12:47.655Z,12.25
2023-04-13T11:13:47.663Z,12.15
2023-04-13T11:14:47.635Z,12.22
2023-04-13T11:15:47.596Z,12.21
2023-04-13T11:16:47.655Z,12.15
2023-04-13T11:17:47.619Z,12.06
2023-04-13T11:18:47.579Z,11.83
2023-04-13T11:19:49.944Z,11.70
2023-04-13T11:20:48.598Z,11.69
2023-04-13T11:22:20.110Z,12.09
2023-04-13T11:22:47.768Z,12.53
2023-04-13T11:23:48.381Z,12.32
2023-04-13T11:24:47.559Z,12.22
2023-04-13T11:25:47.543Z,12.15
2023-04-13T11:26:47.561Z,12.06
2023-04-13T11:27:47.551Z,11.97
2023-04-13T11:28:47.501Z,11.87
2023-04-13T11:29:47.518Z,11.91
2023-04-13T11:30:47.477Z,11.83
2023-04-13T11:31:47.566Z,11.77
2023-04-13T11:32:47.562Z,11.81
2023-04-13T11:33:47.456Z,12.10
2023-04-13T11:34:47.459Z,12.22
2023-04-13T11:35:49.812Z,12.32
2023-04-13T11:36:48.435Z,12.54
2023-04-13T11:37:47.503Z,12.95
2023-04-13T11:38:47.740Z,12.98
2023-04-13T11:39:47.411Z,13.20
2023-04-13T11:40:48.214Z,13.41
2023-04-13T11:41:47.422Z,13.68
2023-04-13T11:42:47.384Z,13.62
2023-04-13T11:43:47.385Z,13.75
2023-04-13T11:44:47.406Z,13.35
2023-04-13T11:45:47.416Z,13.19
2023-04-13T11:46:47.512Z,13.11
2023-04-13T11:47:47.653Z,12.91
2023-04-13T11:48:47.366Z,12.75
2023-04-13T11:49:47.344Z,12.58
2023-04-13T11:50:47.763Z,12.62
2023-04-13T11:51:47.375Z,12.58
2023-04-13T11:52:47.325Z,12.49
2023-04-13T11:53:47.304Z,12.72
2023-04-13T11:54:48.195Z,13.18
2023-04-13T11:55:53.462Z,13.33
2023-04-13T11:56:49.314Z,13.19
2023-04-13T11:57:48.301Z,13.08
2023-04-13T11:58:47.256Z,12.75
2023-04-13T11:59:47.289Z,12.54
2023-04-13T12:00:47.269Z,12.37
2023-04-13T12:01:50.266Z,12.29
2023-04-13T12:03:01.320Z,12.32
2023-04-13T12:04:48.570Z,12.50
2023-04-13T12:05:47.367Z,12.83
2023-04-13T12:06:47.542Z,13.20
2023-04-13T12:07:47.584Z,13.60
2023-04-13T12:08:57.514Z,13.59
2023-04-13T12:11:07.169Z,13.87
2023-04-13T12:12:53.200Z,13.44
2023-04-13T12:14:05.618Z,13.33
2023-04-13T12:15:03.029Z,13.15
2023-04-13T12:16:05.507Z,13.15
2023-04-13T12:17:04.080Z,12.85
2023-04-13T12:17:51.902Z,12.95
2023-04-13T12:18:50.043Z,12.80
2023-04-13T12:19:48.931Z,12.91
2023-04-13T12:20:47.476Z,12.78
2023-04-13T12:21:48.803Z,12.86
2023-04-13T12:23:49.367Z,12.64
2023-04-13T12:24:48.217Z,12.53
2023-04-13T12:25:47.547Z,12.76
2023-04-13T12:27:49.048Z,12.97
2023-04-13T12:28:47.718Z,13.23
2023-04-13T12:29:47.066Z,13.35
2023-04-13T12:30:47.087Z,13.38
2023-04-13T12:31:47.081Z,13.16
2023-04-13T12:32:47.083Z,12.86
2023-04-13T12:33:47.014Z,12.60
2023-04-13T12:34:47.047Z,12.37
2023-04-13T12:35:47.006Z,12.00
2023-04-13T12:36:47.042Z,11.69
2023-04-13T12:37:46.974Z,11.52
2023-04-13T12:38:46.981Z,11.47
2023-04-13T12:39:46.972Z,11.30
2023-04-13T12:40:46.977Z,11.15
2023-04-13T12:41:46.974Z,11.08
2023-04-13T12:42:46.932Z,10.96
2023-04-13T12:43:46.937Z,10.64
2023-04-13T12:44:46.936Z,10.59
2023-04-13T12:45:46.927Z,10.53
2023-04-13T12:46:46.961Z,10.67
2023-04-13T12:47:46.975Z,10.61
2023-04-13T12:48:46.952Z,10.57
2023-04-13T12:49:46.880Z,10.64
2023-04-13T12:50:46.993Z,10.61
2023-04-13T12:51:46.899Z,10.44
2023-04-13T12:52:46.935Z,10.54
2023-04-13T12:53:46.853Z,10.60
2023-04-13T12:54:46.848Z,10.53
2023-04-13T12:55:46.845Z,10.59
2023-04-13T12:56:46.840Z,10.40
2023-04-13T12:57:46.856Z,10.42
2023-04-13T12:58:46.841Z,10.33
2023-04-13T12:59:46.822Z,10.35
2023-04-13T13:00:46.844Z,10.34
2023-04-13T13:01:46.854Z,10.44
2023-04-13T13:02:46.809Z,10.48
2023-04-13T13:03:46.906Z,10.56
2023-04-13T13:04:46.780Z,10.59
2023-04-13T13:05:46.773Z,10.74
2023-04-13T13:06:46.784Z,10.87
2023-04-13T13:07:46.734Z,11.05
2023-04-13T13:08:46.751Z,11.15
2023-04-13T13:09:46.768Z,11.36
2023-04-13T13:10:46.731Z,11.32
2023-04-13T13:11:46.715Z,11.14
2023-04-13T13:12:46.736Z,11.14
2023-04-13T13:13:46.781Z,11.17
2023-04-13T13:14:46.683Z,11.25
2023-04-13T13:15:46.693Z,11.04
2023-04-13T13:16:46.691Z,11.05
2023-04-13T13:17:46.717Z,11.12
2023-04-13T13:18:50.868Z,10.97
2023-04-13T13:19:47.669Z,10.96
2023-04-13T13:20:46.662Z,10.97
2023-04-13T13:21:46.642Z,10.99
2023-04-13T13:22:46.614Z,11.25
2023-04-13T13:23:46.671Z,11.36
2023-04-13T13:24:46.653Z,11.68
2023-04-13T13:26:04.061Z,11.87
2023-04-13T13:27:14.265Z,12.10
2023-04-13T13:28:47.654Z,12.10
2023-04-13T13:29:46.612Z,12.36
2023-04-13T13:30:46.586Z,12.54
2023-04-13T13:31:46.618Z,12.98